createdAt,value
2018-10-18T00:00:59.001Z,24.20
2018-10-18T00:03:28.849Z,25.43
2018-10-18T00:05:59.319Z,26.30
2018-10-18T00:08:27.852Z,25.97
2018-10-18T00:10:57.315Z,26.00
2018-10-18T00:13:26.056Z,26.73
2018-10-18T00:15:55.703Z,23.83
2018-10-18T00:18:25.966Z,25.43
2018-10-18T00:20:59.015Z,27.60
2018-10-18T00:23:28.933Z,25.20
2018-10-18T00:25:59.865Z,26.53
2018-10-18T00:28:29.774Z,27.13
2018-10-18T00:30:59.508Z,24.83
2018-10-18T00:33:32.830Z,26.20
2018-10-18T00:36:03.449Z,26.97
2018-10-18T00:38:31.974Z,24.70
2018-10-18T00:41:00.744Z,26.30
2018-10-18T00:43:29.859Z,28.00
2018-10-18T00:46:00.258Z,26.20
2018-10-18T00:48:29.618Z,24.60
2018-10-18T00:50:58.764Z,25.17
2018-10-18T00:53:29.844Z,26.07
2018-10-18T00:55:59.538Z,24.07
2018-10-18T00:58:29.548Z,28.00
2018-10-18T01:00:58.937Z,26.13
2018-10-18T01:03:29.686Z,29.57
2018-10-18T01:05:59.345Z,32.53
2018-10-18T01:08:29.095Z,31.53
2018-10-18T01:10:59.558Z,26.70
2018-10-18T01:13:29.099Z,24.90
2018-10-18T01:15:58.993Z,29.17
2018-10-18T01:18:29.548Z,27.30
2018-10-18T01:21:00.983Z,28.20
2018-10-18T01:23:31.553Z,32.27
2018-10-18T01:26:03.187Z,26.90
2018-10-18T01:28:32.297Z,27.90
2018-10-18T01:31:01.934Z,25.90
2018-10-18T01:33:31.027Z,27.53
2018-10-18T01:36:01.546Z,28.83
2018-10-18T01:38:32.001Z,26.83
2018-10-18T01:41:04.923Z,29.20
2018-10-18T01:43:36.483Z,24.50
2018-10-18T01:46:07.016Z,26.13
2018-10-18T01:49:06.660Z,24.67
2018-10-18T01:51:35.800Z,26.90
2018-10-18T01:54:06.350Z,24.10
2018-10-18T01:56:36.903Z,26.23
2018-10-18T01:59:07.399Z,26.17
2018-10-18T02:01:36.673Z,27.17
2018-10-18T02:04:06.077Z,27.73
2018-10-18T02:06:34.825Z,26.87
2018-10-18T02:09:04.700Z,31.37
2018-10-18T02:11:35.749Z,27.40
2018-10-18T02:14:05.341Z,31.10
2018-10-18T02:16:35.513Z,30.57
2018-10-18T02:19:05.425Z,26.17
2018-10-18T02:21:34.720Z,28.97
2018-10-18T02:24:04.632Z,28.47
2018-10-18T02:26:34.339Z,26.80
2018-10-18T02:29:04.271Z,31.13
2018-10-18T02:31:34.304Z,28.10
2018-10-18T02:34:04.248Z,32.50
2018-10-18T02:36:34.389Z,26.70
2018-10-18T02:39:03.517Z,27.33
2018-10-18T02:41:32.679Z,28.10
2018-10-18T02:44:02.751Z,27.73
2018-10-18T02:46:32.152Z,27.43
2018-10-18T02:49:02.855Z,24.97
2018-10-18T02:51:32.841Z,30.60
2018-10-18T02:54:02.192Z,27.87
2018-10-18T02:56:32.279Z,27.60
2018-10-18T02:59:02.802Z,26.50
2018-10-18T03:01:32.247Z,27.77
2018-10-18T03:04:03.039Z,29.07
2018-10-18T03:06:32.649Z,32.90
2018-10-18T03:09:02.112Z,29.40
2018-10-18T03:11:32.803Z,28.57
2018-10-18T03:14:04.775Z,27.83
2018-10-18T03:16:34.954Z,28.70
2018-10-18T03:19:06.111Z,28.43
2018-10-18T03:21:34.988Z,30.23
2018-10-18T03:24:04.269Z,29.30
2018-10-18T03:26:32.784Z,30.87
2018-10-18T03:29:02.220Z,25.50
2018-10-18T03:31:31.983Z,28.47
2018-10-18T03:34:04.944Z,31.80
2018-10-18T03:36:34.384Z,31.53
2018-10-18T03:39:05.387Z,27.53
2018-10-18T03:41:34.637Z,25.50
2018-10-18T03:44:05.515Z,28.80
2018-10-18T03:46:36.081Z,35.40
2018-10-18T03:49:06.493Z,28.73
2018-10-18T03:51:36.255Z,31.30
2018-10-18T03:54:06.805Z,31.33
2018-10-18T03:56:36.399Z,28.93
2018-10-18T03:59:06.115Z,30.77
2018-10-18T04:01:35.387Z,28.40
2018-10-18T04:04:06.461Z,27.73
2018-10-18T04:06:37.870Z,31.57
2018-10-18T04:09:08.829Z,31.43
2018-10-18T04:11:40.777Z,36.70
2018-10-18T04:14:09.275Z,30.40
2018-10-18T04:16:38.783Z,30.37
2018-10-18T04:19:09.882Z,29.73
2018-10-18T04:21:40.856Z,29.70
2018-10-18T04:24:09.499Z,33.53
2018-10-18T04:26:37.993Z,26.87
2018-10-18T04:29:07.660Z,29.53
2018-10-18T04:31:37.793Z,30.77
2018-10-18T04:34:06.731Z,34.17
2018-10-18T04:36:35.446Z,29.90
2018-10-18T04:39:07.268Z,31.57
2018-10-18T04:41:37.147Z,34.37
2018-10-18T04:44:07.276Z,33.30
2018-10-18T04:46:37.667Z,27.87
2018-10-18T04:49:08.007Z,28.17
2018-10-18T04:51:38.385Z,34.17
2018-10-18T04:54:08.796Z,33.03
2018-10-18T04:56:39.387Z,32.93
2018-10-18T04:59:08.436Z,31.53
2018-10-18T05:01:39.921Z,26.47
2018-10-18T05:04:11.056Z,32.40
2018-10-18T05:06:42.195Z,30.97
2018-10-18T05:09:12.680Z,29.03
2018-10-18T05:11:42.329Z,27.90
2018-10-18T05:14:12.407Z,31.93
2018-10-18T05:19:42.332Z,28.30
2018-10-18T05:22:10.894Z,26.83
2018-10-18T05:24:39.744Z,31.37
2018-10-18T05:27:09.258Z,32.80
2018-10-18T05:30:12.165Z,30.03
2018-10-18T05:32:41.623Z,29.93
2018-10-18T05:35:11.858Z,25.97
2018-10-18T05:37:42.419Z,26.50
2018-10-18T05:40:11.398Z,32.33
2018-10-18T05:42:41.055Z,36.43
2018-10-18T05:45:10.092Z,30.97
2018-10-18T05:47:40.278Z,31.53
2018-10-18T05:50:10.616Z,29.07
2018-10-18T05:52:41.249Z,33.00
2018-10-18T05:55:12.329Z,31.00
2018-10-18T05:57:42.355Z,30.90
2018-10-18T06:00:17.143Z,32.80
2018-10-18T06:02:47.365Z,33.37
2018-10-18T06:05:17.680Z,31.17
2018-10-18T06:07:46.645Z,34.93
2018-10-18T06:10:27.566Z,31.70
2018-10-18T06:12:58.853Z,33.00
2018-10-18T06:15:28.783Z,33.13
2018-10-18T06:17:58.274Z,33.03
2018-10-18T06:20:27.972Z,30.10
2018-10-18T06:22:58.941Z,35.53
2018-10-18T06:25:29.587Z,32.17
2018-10-18T06:27:58.992Z,32.93
2018-10-18T06:30:28.675Z,35.20
2018-10-18T06:32:58.255Z,30.57
2018-10-18T06:35:26.747Z,30.10
2018-10-18T06:37:55.319Z,35.07
2018-10-18T06:40:24.576Z,35.40
2018-10-18T06:42:54.677Z,37.53
2018-10-18T06:45:25.073Z,33.10
2018-10-18T06:47:55.913Z,31.20
2018-10-18T06:50:24.567Z,33.80
2018-10-18T06:52:54.206Z,30.30
2018-10-18T06:55:24.213Z,31.63
2018-10-18T06:57:58.532Z,31.87
2018-10-18T07:00:28.076Z,31.60
2018-10-18T07:02:58.135Z,33.80
2018-10-18T07:05:26.784Z,36.17
2018-10-18T07:07:56.116Z,37.63
2018-10-18T07:10:26.668Z,34.73
2018-10-18T07:12:56.373Z,36.83
2018-10-18T07:15:25.480Z,39.83
2018-10-18T07:17:55.852Z,38.13
2018-10-18T07:20:27.239Z,35.00
2018-10-18T07:22:58.884Z,34.67
2018-10-18T07:25:29.704Z,35.53
2018-10-18T07:27:59.797Z,36.13
2018-10-18T07:30:30.098Z,37.93
2018-10-18T07:33:00.230Z,35.90
2018-10-18T07:35:30.922Z,39.83
2018-10-18T07:38:02.847Z,38.77
2018-10-18T07:40:32.809Z,41.00
2018-10-18T07:43:02.954Z,39.23
2018-10-18T07:45:32.066Z,44.80
2018-10-18T07:48:02.014Z,34.10
2018-10-18T07:50:31.154Z,37.77
2018-10-18T07:53:01.330Z,35.00
2018-10-18T07:55:30.779Z,43.00
2018-10-18T07:58:03.779Z,47.40
2018-10-18T08:00:33.593Z,48.77
2018-10-18T08:03:02.860Z,43.27
2018-10-18T08:05:34.406Z,40.90
2018-10-18T08:08:05.141Z,42.97
2018-10-18T08:10:35.067Z,42.90
2018-10-18T08:13:14.814Z,47.57
2018-10-18T08:15:44.668Z,51.83
2018-10-18T08:18:14.867Z,53.70
2018-10-18T08:20:44.548Z,47.07
2018-10-18T08:23:14.459Z,45.43
2018-10-18T08:25:43.619Z,49.20
2018-10-18T08:28:13.767Z,47.73
2018-10-18T08:30:44.541Z,49.40
2018-10-18T08:33:13.813Z,54.40
2018-10-18T08:35:43.132Z,48.63
2018-10-18T08:38:12.630Z,60.97
2018-10-18T08:40:42.347Z,58.13
2018-10-18T08:43:12.056Z,49.63
2018-10-18T08:45:42.643Z,55.87
2018-10-18T08:48:11.455Z,58.13
2018-10-18T08:50:41.026Z,55.73
2018-10-18T08:53:10.540Z,46.43
2018-10-18T08:55:40.819Z,47.47
2018-10-18T08:58:18.253Z,47.67
2018-10-18T09:00:47.237Z,52.53
2018-10-18T09:03:16.506Z,52.50
2018-10-18T09:05:48.036Z,56.70
2018-10-18T09:08:17.641Z,59.33
2018-10-18T09:10:47.140Z,46.03
2018-10-18T09:13:16.295Z,49.27
2018-10-18T09:15:46.694Z,47.53
2018-10-18T09:18:30.947Z,48.70
2018-10-18T09:21:01.763Z,45.43
2018-10-18T09:23:30.624Z,49.20
2018-10-18T09:27:02.291Z,43.17
2018-10-18T09:29:31.522Z,44.30
2018-10-18T09:32:03.649Z,49.70
2018-10-18T09:34:33.827Z,55.87
2018-10-18T09:37:03.875Z,51.27
2018-10-18T09:39:33.701Z,50.93
2018-10-18T09:42:03.262Z,54.17
2018-10-18T09:44:32.124Z,49.37
2018-10-18T09:47:01.459Z,49.10
2018-10-18T09:49:37.026Z,48.37
2018-10-18T09:52:06.788Z,52.83
2018-10-18T09:54:36.017Z,50.87
2018-10-18T09:57:05.884Z,49.27
2018-10-18T09:59:38.367Z,42.73
2018-10-18T10:02:13.342Z,40.03
2018-10-18T10:04:43.950Z,47.03
2018-10-18T10:07:15.689Z,40.07
2018-10-18T10:09:45.016Z,40.90
2018-10-18T10:12:14.568Z,44.13
2018-10-18T10:16:53.288Z,45.43
2018-10-18T10:19:24.590Z,42.60
2018-10-18T10:21:53.756Z,37.77
2018-10-18T10:24:24.003Z,39.47
2018-10-18T10:26:54.830Z,38.43
2018-10-18T10:29:24.133Z,42.87
2018-10-18T10:31:57.601Z,41.73
2018-10-18T10:34:29.094Z,44.95
2018-10-18T10:36:58.759Z,39.33
2018-10-18T10:39:27.797Z,42.90
2018-10-18T10:41:58.918Z,40.47
2018-10-18T10:44:29.953Z,38.07
2018-10-18T10:46:59.332Z,40.87
2018-10-18T10:49:28.985Z,42.17
2018-10-18T10:51:58.353Z,42.17
2018-10-18T10:57:03.886Z,41.67
2018-10-18T10:59:34.688Z,45.17
2018-10-18T11:02:05.934Z,56.43
2018-10-18T11:04:36.030Z,38.07
2018-10-18T11:07:06.443Z,48.70
2018-10-18T11:09:37.027Z,46.63
2018-10-18T11:12:07.896Z,44.10
2018-10-18T11:14:36.631Z,47.27
2018-10-18T11:17:05.391Z,42.77
2018-10-18T11:19:35.268Z,44.80
2018-10-18T11:22:05.835Z,48.57
2018-10-18T11:24:36.927Z,45.50
2018-10-18T11:27:06.090Z,45.90
2018-10-18T11:29:34.923Z,43.03
2018-10-18T11:32:03.661Z,53.23
2018-10-18T11:34:36.141Z,53.80
2018-10-18T11:39:44.253Z,45.40
2018-10-18T11:42:14.368Z,49.37
2018-10-18T11:44:44.997Z,49.23
2018-10-18T11:47:15.382Z,45.53
2018-10-18T11:49:44.482Z,44.63
2018-10-18T11:52:14.173Z,53.77
2018-10-18T11:54:42.998Z,48.17
2018-10-18T11:57:12.586Z,103.00
2018-10-18T11:59:42.413Z,40.20
2018-10-18T12:02:12.767Z,41.40
2018-10-18T12:04:43.340Z,37.67
2018-10-18T12:09:59.991Z,54.13
2018-10-18T12:12:28.555Z,43.37
2018-10-18T12:14:58.708Z,36.40
2018-10-18T12:17:29.625Z,44.70
2018-10-18T12:19:59.529Z,39.40
2018-10-18T12:22:29.205Z,41.90
2018-10-18T12:24:58.004Z,39.53
2018-10-18T12:27:30.017Z,47.30
2018-10-18T12:29:59.055Z,40.90
2018-10-18T12:32:31.153Z,33.30
2018-10-18T12:35:01.158Z,40.70
2018-10-18T12:37:30.269Z,45.23
2018-10-18T12:40:00.620Z,42.77
2018-10-18T12:42:31.200Z,35.90
2018-10-18T12:45:00.808Z,37.40
2018-10-18T12:47:31.275Z,35.67
2018-10-18T12:50:01.980Z,40.57
2018-10-18T12:52:31.884Z,39.17
2018-10-18T12:55:01.034Z,38.17
2018-10-18T12:57:30.032Z,37.90
2018-10-18T12:59:58.918Z,38.23
2018-10-18T13:02:27.913Z,32.40
2018-10-18T13:04:57.698Z,35.77
2018-10-18T13:07:27.004Z,39.80
2018-10-18T13:09:56.016Z,33.70
2018-10-18T13:12:25.329Z,34.70
2018-10-18T13:14:54.239Z,37.40
2018-10-18T13:17:24.165Z,40.40
2018-10-18T13:19:53.977Z,34.90
2018-10-18T13:22:22.582Z,35.30
2018-10-18T13:24:51.275Z,35.03
2018-10-18T13:27:21.813Z,35.37
2018-10-18T13:29:51.367Z,35.03
2018-10-18T13:32:22.186Z,30.87
2018-10-18T13:34:51.423Z,33.07
2018-10-18T13:37:20.741Z,36.67
2018-10-18T13:39:49.814Z,34.60
2018-10-18T13:42:20.872Z,34.57
2018-10-18T13:44:50.675Z,42.70
2018-10-18T13:47:20.460Z,39.27
2018-10-18T13:49:50.076Z,32.63
2018-10-18T13:52:20.403Z,32.57
2018-10-18T13:54:49.983Z,31.00
2018-10-18T13:57:20.145Z,31.70
2018-10-18T13:59:59.702Z,30.00
2018-10-18T14:02:28.690Z,30.73
2018-10-18T14:04:58.762Z,32.73
2018-10-18T14:07:28.436Z,30.53
2018-10-18T14:09:57.773Z,39.00
2018-10-18T14:12:27.394Z,29.83
2018-10-18T14:14:57.908Z,31.60
2018-10-18T14:17:26.918Z,30.17
2018-10-18T14:19:57.025Z,34.70
2018-10-18T14:22:26.684Z,32.70
2018-10-18T14:25:24.243Z,33.47
2018-10-18T14:27:53.914Z,23.43
2018-10-18T14:30:24.820Z,31.70
2018-10-18T14:32:54.340Z,29.27
2018-10-18T14:35:24.043Z,28.17
2018-10-18T14:37:55.565Z,35.37
2018-10-18T14:40:25.893Z,32.73
2018-10-18T14:42:55.352Z,22.20
2018-10-18T14:45:24.895Z,29.93
2018-10-18T14:47:53.592Z,28.20
2018-10-18T14:50:23.069Z,31.53
2018-10-18T14:52:52.094Z,29.70
2018-10-18T14:55:21.442Z,26.63
2018-10-18T14:57:52.599Z,30.30
2018-10-18T15:00:22.040Z,27.10
2018-10-18T15:02:50.544Z,25.17
2018-10-18T15:05:20.645Z,26.57
2018-10-18T15:07:49.943Z,28.23
2018-10-18T15:10:18.772Z,30.30
2018-10-18T15:12:48.459Z,31.67
2018-10-18T15:15:18.919Z,28.20
2018-10-18T15:17:48.531Z,31.10
2018-10-18T15:20:17.968Z,26.33
2018-10-18T15:22:48.555Z,29.70
2018-10-18T15:25:17.780Z,27.80
2018-10-18T15:27:47.375Z,25.80
2018-10-18T15:30:17.226Z,26.97
2018-10-18T15:32:47.299Z,28.50
2018-10-18T15:35:19.587Z,23.73
2018-10-18T15:37:48.440Z,25.57
2018-10-18T15:40:18.105Z,26.80
2018-10-18T15:42:47.525Z,26.70
2018-10-18T15:45:16.665Z,28.87
2018-10-18T15:47:46.227Z,25.33
2018-10-18T15:50:15.200Z,24.37
2018-10-18T15:52:44.448Z,25.43
2018-10-18T15:55:14.360Z,25.10
2018-10-18T15:57:44.958Z,27.80
2018-10-18T16:00:16.526Z,24.40
2018-10-18T16:02:45.788Z,24.20
2018-10-18T16:05:15.663Z,21.73
2018-10-18T16:07:45.828Z,20.77
2018-10-18T16:10:15.810Z,24.40
2018-10-18T16:12:45.809Z,24.37
2018-10-18T16:15:15.788Z,24.73
2018-10-18T16:17:44.735Z,24.73
2018-10-18T16:20:14.634Z,24.00
2018-10-18T16:22:47.104Z,20.90
2018-10-18T16:25:16.706Z,23.53
2018-10-18T16:27:46.519Z,22.47
2018-10-18T16:30:15.873Z,23.07
2018-10-18T16:32:44.695Z,23.77
2018-10-18T16:35:14.960Z,22.70
2018-10-18T16:37:45.095Z,22.60
2018-10-18T16:40:16.515Z,21.40
2018-10-18T16:42:47.177Z,21.60
2018-10-18T16:45:16.233Z,26.40
2018-10-18T16:47:46.336Z,22.97
2018-10-18T16:50:15.454Z,19.60
2018-10-18T16:52:44.716Z,21.50
2018-10-18T16:55:13.214Z,19.70
2018-10-18T16:57:43.649Z,26.93
2018-10-18T17:00:14.012Z,25.17
2018-10-18T17:02:45.077Z,24.70
2018-10-18T17:05:16.700Z,24.63
2018-10-18T17:07:46.401Z,23.00
2018-10-18T17:10:17.201Z,21.10
2018-10-18T17:12:46.649Z,21.83
2018-10-18T17:15:16.296Z,21.10
2018-10-18T17:17:44.983Z,25.23
2018-10-18T17:20:15.245Z,21.97
2018-10-18T17:22:45.970Z,27.87
2018-10-18T17:25:23.205Z,24.17
2018-10-18T17:27:52.073Z,24.10
2018-10-18T17:30:22.767Z,22.07
2018-10-18T17:32:53.788Z,21.40
2018-10-18T17:35:25.495Z,23.93
2018-10-18T17:37:55.866Z,24.90
2018-10-18T17:40:24.608Z,28.63
2018-10-18T17:42:54.520Z,29.87
2018-10-18T17:45:23.678Z,25.67
2018-10-18T17:47:54.426Z,29.57
2018-10-18T17:50:24.082Z,29.83
2018-10-18T17:52:54.422Z,26.10
2018-10-18T17:55:24.257Z,25.03
2018-10-18T17:57:52.815Z,28.47
2018-10-18T18:00:22.186Z,27.97
2018-10-18T18:02:51.632Z,24.80
2018-10-18T18:05:21.727Z,26.53
2018-10-18T18:07:52.608Z,30.43
2018-10-18T18:10:22.329Z,28.70
2018-10-18T18:12:51.760Z,28.20
2018-10-18T18:15:23.218Z,28.40
2018-10-18T18:17:52.268Z,27.40
2018-10-18T18:20:22.450Z,29.40
2018-10-18T18:22:52.699Z,31.50
2018-10-18T18:25:22.442Z,26.10
2018-10-18T18:27:52.668Z,36.47
2018-10-18T18:30:22.166Z,40.57
2018-10-18T18:32:51.426Z,24.80
2018-10-18T18:35:21.308Z,30.90
2018-10-18T18:37:53.355Z,30.50
2018-10-18T18:40:22.478Z,28.73
2018-10-18T18:42:54.056Z,27.47
2018-10-18T18:45:25.979Z,30.07
2018-10-18T18:47:55.500Z,29.30
2018-10-18T18:50:24.285Z,29.50
2018-10-18T18:52:54.371Z,28.07
2018-10-18T18:55:25.696Z,29.13
2018-10-18T18:57:54.881Z,28.20
2018-10-18T19:00:24.855Z,29.90
2018-10-18T19:02:53.380Z,29.43
2018-10-18T19:05:22.414Z,30.47
2018-10-18T19:07:53.744Z,26.60
2018-10-18T19:10:22.557Z,30.43
2018-10-18T19:12:53.051Z,30.47
2018-10-18T19:15:22.883Z,30.30
2018-10-18T19:17:51.769Z,34.20
2018-10-18T19:20:20.411Z,30.77
2018-10-18T19:22:51.504Z,32.70
2018-10-18T19:25:20.496Z,36.73
2018-10-18T19:27:49.053Z,32.60
2018-10-18T19:30:20.136Z,32.40
2018-10-18T19:32:50.194Z,33.70
2018-10-18T19:35:20.275Z,33.67
2018-10-18T19:37:50.364Z,34.60
2018-10-18T19:40:19.577Z,35.67
2018-10-18T19:42:50.251Z,34.17
2018-10-18T19:45:25.460Z,36.70
2018-10-18T19:47:55.144Z,37.57
2018-10-18T19:50:24.650Z,39.70
2018-10-18T19:52:56.382Z,40.47
2018-10-18T19:55:25.612Z,40.10
2018-10-18T19:57:56.897Z,43.93
2018-10-18T20:00:26.279Z,38.17
2018-10-18T20:02:55.080Z,42.37
2018-10-18T20:05:25.462Z,43.10
2018-10-18T20:07:54.659Z,41.37
2018-10-18T20:10:25.100Z,41.97
2018-10-18T20:12:53.930Z,46.33
2018-10-18T20:15:23.127Z,41.63
2018-10-18T20:17:53.794Z,45.47
2018-10-18T20:20:25.181Z,38.40
2018-10-18T20:22:54.498Z,37.77
2018-10-18T20:25:24.547Z,44.60
2018-10-18T20:27:54.404Z,48.30
2018-10-18T20:30:24.361Z,43.40
2018-10-18T20:32:55.165Z,46.30
2018-10-18T20:35:26.183Z,46.50
2018-10-18T20:37:55.868Z,41.97
2018-10-18T20:40:26.229Z,42.07
2018-10-18T20:42:54.758Z,45.43
2018-10-18T20:45:25.076Z,43.60
2018-10-18T20:47:54.300Z,41.00
2018-10-18T20:50:24.492Z,44.53
2018-10-18T20:52:56.245Z,44.53
2018-10-18T20:55:26.556Z,41.27
2018-10-18T20:57:55.084Z,43.83
2018-10-18T21:00:25.157Z,47.37
2018-10-18T21:02:55.779Z,47.60
2018-10-18T21:05:26.234Z,46.17
2018-10-18T21:07:58.338Z,53.60
2018-10-18T21:10:29.150Z,46.57
2018-10-18T21:12:59.701Z,45.87
2018-10-18T21:15:28.614Z,53.07
2018-10-18T21:17:59.042Z,49.73
2018-10-18T21:20:28.141Z,47.23
2018-10-18T21:22:57.775Z,52.23
2018-10-18T21:25:26.932Z,47.67
2018-10-18T21:27:56.127Z,53.30
2018-10-18T21:30:25.389Z,48.13
2018-10-18T21:32:53.945Z,58.83
2018-10-18T21:35:24.226Z,54.90
2018-10-18T21:37:53.790Z,54.10
2018-10-18T21:40:23.867Z,51.77
2018-10-18T21:42:54.799Z,51.90
2018-10-18T21:45:24.496Z,55.47
2018-10-18T21:47:55.301Z,53.27
2018-10-18T21:50:25.862Z,60.23
2018-10-18T21:52:54.758Z,55.33
2018-10-18T21:55:25.544Z,54.80
2018-10-18T21:57:55.573Z,52.63
2018-10-18T22:00:30.225Z,54.60
2018-10-18T22:02:59.869Z,58.87
2018-10-18T22:05:29.215Z,55.23
2018-10-18T22:07:58.880Z,62.03
2018-10-18T22:10:28.855Z,60.47
2018-10-18T22:12:58.119Z,58.20
2018-10-18T22:15:27.034Z,60.57
2018-10-18T22:17:59.068Z,57.73
2018-10-18T22:20:28.186Z,60.10
2018-10-18T22:22:57.730Z,53.17
2018-10-18T22:25:27.403Z,61.63
2018-10-18T22:27:56.564Z,62.63
2018-10-18T22:30:27.384Z,63.00
2018-10-18T22:32:56.711Z,59.23
2018-10-18T22:35:27.022Z,68.70
2018-10-18T22:37:58.804Z,57.13
2018-10-18T22:40:29.284Z,64.80
2018-10-18T22:42:59.632Z,56.23
2018-10-18T22:45:29.439Z,65.37
2018-10-18T22:47:59.913Z,65.07
2018-10-18T22:50:30.497Z,64.43
2018-10-18T22:53:00.104Z,62.73
2018-10-18T22:55:30.091Z,59.60
2018-10-18T22:57:59.275Z,65.33
2018-10-18T23:00:28.323Z,60.40
2018-10-18T23:03:03.750Z,59.30
2018-10-18T23:05:32.229Z,58.53
2018-10-18T23:08:02.053Z,63.50
2018-10-18T23:10:30.842Z,62.60
2018-10-18T23:12:59.560Z,63.77
2018-10-18T23:15:30.435Z,62.27
2018-10-18T23:18:00.953Z,64.07
2018-10-18T23:20:29.515Z,65.00
2018-10-18T23:22:58.845Z,59.07
2018-10-18T23:25:30.631Z,69.63
2018-10-18T23:27:59.961Z,59.20
2018-10-18T23:30:29.273Z,61.67
2018-10-18T23:32:58.096Z,59.90
2018-10-18T23:35:27.428Z,60.33
2018-10-18T23:37:55.947Z,62.67
2018-10-18T23:40:25.022Z,61.70
2018-10-18T23:42:54.574Z,67.57
2018-10-18T23:45:23.418Z,67.10
2018-10-18T23:47:54.449Z,68.33
2018-10-18T23:50:23.764Z,64.93
2018-10-18T23:52:55.453Z,63.73
2018-10-18T23:55:24.893Z,65.20
2018-10-18T23:57:55.075Z,64.70
